Decoded Metar for UHHH (KHABAROVSK in RUSSIA) (IATA:KHV) | Meteo·Mobile Aviation Weather
aviador You're here:

UHHH Decoded Metar

KHABAROVSK in RUSSIA
Report Time2018-08-14 10:30:00
UTC Time2018-08-14 10:57:26
Flight Rules vfr VFR
Wind040° at 8 kt
W.Decomp.*RWY 05: 8.0 kt HW 0.1 kt RCW
W.Rank040° ranks 7
Current wind is below 040° avg. (9.4)
Visibility9999 m
Phenomena:N/A
Clouds:N/A
Expected CloudBase > 2,800 ft AGL from Temp-Dew spread
CeilingNone
Temp19°C (ISA +4)
Dew Point12°C (64% RH)
AAT16.7°C
QNH1014 hPa
Density Alt915 ft
Elevation236 ft
Report Wrong Elevation
Raw Report
METAR UHHH 141030Z 04004MPS CAVOK 19/12 Q1014 R05R/090060 NOSIG RMK
QFE754/1006=

Extra information for UHHH:More info

Metar Taf Metar & Taf Last 4 Metars F.Rules Stats Wind Profile Meteogram Temp Stats Airport Information Weather charts Add Link Nearby VenuesMetar ALERT Operation Metar Decoded Social comments